Time;durP1;ratioP1;P1;durP2;ratioP2;P2;SDS_P1;SDS_P2;PMS_P1;PMS_P2;Temp;Humidity;BMP_temperature;BMP_pressure;BME280_temperature;BME280_humidity;BME280_pressure;Samples;Min_cycle;Max_cycle;Signal;HPM_P1;HPM_P2
2022/05/07 00:00:39;;;;;;;6.18;3.95;;;;;;;;;;5079438;28;20036;-82
2022/05/07 00:03:06;;;;;;;7.22;4.70;;;12.20;99.90;;;;;;5063739;28;20259;-83
2022/05/07 00:05:31;;;;;;;8.98;4.35;;;12.10;99.90;;;;;;5059809;28;20028;-82
2022/05/07 00:07:58;;;;;;;11.27;6.20;;;;;;;;;;5062063;28;20029;-83
2022/05/07 00:10:24;;;;;;;8.73;4.60;;;12.20;99.90;;;;;;5079322;28;20032;-84
2022/05/07 00:12:49;;;;;;;8.82;4.35;;;12.10;99.90;;;;;;5062585;28;20025;-83
2022/05/07 00:15:15;;;;;;;7.72;4.47;;;;;;;;;;5070995;28;20032;-84
2022/05/07 00:20:27;;;;;;;10.40;4.20;;;12.00;99.90;;;;;;5076632;28;20035;-83
2022/05/07 00:22:53;;;;;;;12.25;5.57;;;12.00;99.90;;;;;;5062169;28;20024;-85
2022/05/07 00:25:19;;;;;;;8.23;4.85;;;12.00;99.90;;;;;;5057560;28;20018;-82
2022/05/07 00:27:45;;;;;;;7.65;4.93;;;12.00;99.90;;;;;;5049661;28;20129;-82
2022/05/07 00:30:11;;;;;;;8.32;4.82;;;11.90;99.90;;;;;;5071486;28;20320;-82
2022/05/07 00:32:36;;;;;;;9.80;4.72;;;11.90;99.90;;;;;;5065843;28;20052;-81
2022/05/07 00:35:02;;;;;;;8.32;4.63;;;11.90;99.90;;;;;;5066518;28;20020;-83
2022/05/07 00:37:28;;;;;;;11.07;4.53;;;;;;;;;;5080102;28;20044;-83
2022/05/07 00:39:54;;;;;;;11.02;4.72;;;11.90;99.90;;;;;;5081700;28;20493;-83
2022/05/07 00:42:20;;;;;;;11.30;4.95;;;11.80;99.90;;;;;;5076941;28;20021;-81
2022/05/07 00:44:46;;;;;;;9.70;4.60;;;11.80;99.90;;;;;;5066070;28;20581;-84
2022/05/07 00:47:24;;;;;;;7.03;4.65;;;14.40;99.90;;;;;;5049344;28;20485;-84
2022/05/07 00:52:41;;;;;;;7.20;4.18;;;11.90;99.90;;;;;;5081740;28;20089;-85
2022/05/07 00:55:07;;;;;;;6.22;4.28;;;11.80;99.90;;;;;;5076286;28;20108;-84
2022/05/07 00:57:32;;;;;;;7.05;4.47;;;11.20;99.90;;;;;;5083146;28;20099;-84
2022/05/07 00:59:58;;;;;;;7.72;4.95;;;15.40;99.90;;;;;;5067439;28;20480;-85
2022/05/07 01:02:24;;;;;;;10.10;5.00;;;;;;;;;;5064571;28;20036;-84
2022/05/07 01:04:50;;;;;;;8.48;5.20;;;;;;;;;;5081100;28;20032;-83
2022/05/07 01:07:16;;;;;;;7.15;4.45;;;;;;;;;;5050043;28;20033;-83
2022/05/07 01:09:42;;;;;;;9.50;4.32;;;;;;;;;;5076430;28;20039;-83
2022/05/07 01:12:08;;;;;;;6.38;4.20;;;11.60;99.90;;;;;;5063804;28;20094;-83
2022/05/07 01:14:34;;;;;;;8.55;4.70;;;;;;;;;;5060511;28;20040;-84
2022/05/07 01:17:00;;;;;;;7.10;4.30;;;;;;;;;;5084551;28;20025;-85
2022/05/07 01:19:26;;;;;;;6.50;4.45;;;11.50;99.90;;;;;;5067573;28;20025;-84
2022/05/07 01:21:52;;;;;;;7.22;4.53;;;;;;;;;;5070601;28;20024;-84
2022/05/07 01:24:18;;;;;;;9.38;4.10;;;11.40;99.90;;;;;;5075612;28;20461;-85
2022/05/07 01:26:43;;;;;;;5.97;4.28;;;11.30;99.90;;;;;;5065211;28;20028;-82
2022/05/07 01:29:09;;;;;;;7.00;4.60;;;13.10;99.90;;;;;;5063196;28;20028;-84
2022/05/07 01:31:35;;;;;;;8.07;5.00;;;;;;;;;;5083184;28;20087;-84
2022/05/07 01:34:01;;;;;;;8.07;4.50;;;;;;;;;;5077898;28;20023;-82
2022/05/07 01:36:27;;;;;;;6.30;4.15;;;;;;;;;;5077470;28;20092;-83
2022/05/07 01:38:52;;;;;;;6.07;4.18;;;11.30;99.90;;;;;;5077137;28;20070;-84
2022/05/07 01:41:18;;;;;;;7.28;4.32;;;11.20;99.90;;;;;;5077165;28;20372;-87
2022/05/07 01:43:44;;;;;;;9.38;5.03;;;;;;;;;;5080686;28;20028;-82
2022/05/07 01:48:54;;;;;;;6.43;4.20;;;11.20;99.90;;;;;;5078931;28;20054;-83
2022/05/07 01:51:20;;;;;;;10.43;4.88;;;11.10;99.90;;;;;;5079859;28;20569;-85
2022/05/07 01:53:47;;;;;;;9.77;4.55;;;12.10;99.90;;;;;;5077530;28;20021;-84
2022/05/07 01:56:12;;;;;;;6.55;4.20;;;11.00;99.90;;;;;;5063957;28;20115;-84
2022/05/07 01:58:38;;;;;;;7.80;3.88;;;11.00;99.90;;;;;;5066490;28;20559;-84
2022/05/07 02:01:04;;;;;;;7.50;4.53;;;11.00;99.90;;;;;;5084821;28;20043;-85
2022/05/07 02:03:30;;;;;;;8.50;4.90;;;;;;;;;;5074045;28;20033;-83
2022/05/07 02:05:56;;;;;;;9.88;4.63;;;10.90;99.90;;;;;;5078846;28;20037;-84
2022/05/07 02:08:22;;;;;;;6.70;4.25;;;12.00;99.90;;;;;;5086289;28;20036;-83
2022/05/07 02:10:47;;;;;;;8.07;5.13;;;10.80;99.90;;;;;;5068019;28;20031;-82
2022/05/07 02:13:13;;;;;;;8.57;4.75;;;10.80;99.90;;;;;;5063104;28;20021;-83
2022/05/07 02:15:39;;;;;;;6.25;4.22;;;;;;;;;;5062817;28;20486;-86
2022/05/07 02:18:05;;;;;;;8.32;4.55;;;;;;;;;;5078978;28;20028;-84
2022/05/07 02:20:31;;;;;;;8.60;4.80;;;;;;;;;;5058832;28;20025;-85
2022/05/07 02:22:57;;;;;;;6.57;4.47;;;10.70;99.90;;;;;;5083683;28;20236;-84
2022/05/07 02:25:23;;;;;;;7.63;4.50;;;13.50;99.90;;;;;;5066903;28;20012;-85
2022/05/07 02:27:50;;;;;;;7.35;4.55;;;;;;;;;;5088385;28;20114;-83
2022/05/07 02:30:19;;;;;;;8.80;4.78;;;;;;;;;;5061638;28;20058;-84
2022/05/07 02:32:45;;;;;;;7.22;4.65;;;;;;;;;;5073989;28;20020;-81
2022/05/07 02:35:10;;;;;;;7.07;4.55;;;10.60;99.90;;;;;;5059715;28;20024;-82
2022/05/07 02:37:36;;;;;;;6.80;4.43;;;;;;;;;;5069459;28;20110;-84
2022/05/07 02:40:02;;;;;;;6.68;4.50;;;10.60;99.90;;;;;;5058986;28;20070;-79
2022/05/07 02:42:33;;;;;;;7.00;4.75;;;10.60;99.90;;;;;;5073950;28;20052;-82
2022/05/07 02:45:01;;;;;;;8.95;4.30;;;10.60;99.90;;;;;;5056874;28;20028;-84
2022/05/07 02:47:28;;;;;;;6.97;4.85;;;10.50;99.90;;;;;;5056245;28;20021;-80
2022/05/07 02:49:53;;;;;;;7.28;4.38;;;10.50;99.90;;;;;;5052745;28;20040;-82
2022/05/07 02:52:19;;;;;;;8.43;4.47;;;11.60;99.90;;;;;;5074560;28;20031;-81
2022/05/07 02:54:45;;;;;;;8.25;4.40;;;10.40;99.90;;;;;;5059094;28;20048;-83
2022/05/07 02:57:11;;;;;;;7.68;5.03;;;10.30;99.90;;;;;;5077760;28;20029;-81
2022/05/07 02:59:38;;;;;;;8.52;5.40;;;10.40;99.90;;;;;;5058552;28;20020;-83
2022/05/07 03:02:04;;;;;;;7.43;4.57;;;10.30;99.90;;;;;;5057762;28;20020;-83
2022/05/07 03:04:30;;;;;;;8.00;4.97;;;10.60;99.90;;;;;;5076171;28;20020;-83
2022/05/07 03:06:56;;;;;;;9.52;4.68;;;12.00;99.90;;;;;;5083681;28;20091;-84
2022/05/07 03:09:22;;;;;;;8.13;4.70;;;;;;;;;;5061356;28;20020;-81
2022/05/07 03:11:49;;;;;;;7.60;4.72;;;;;;;;;;5059875;28;20032;-81
2022/05/07 03:14:14;;;;;;;11.13;4.78;;;10.20;99.90;;;;;;5059568;28;20025;-81
2022/05/07 03:16:40;;;;;;;9.88;4.60;;;13.20;99.90;;;;;;5076798;28;20040;-82
2022/05/07 03:19:07;;;;;;;6.32;5.05;;;;;;;;;;5074758;28;20056;-83
2022/05/07 03:21:32;;;;;;;7.93;4.65;;;10.20;99.90;;;;;;5070407;28;20036;-85
2022/05/07 03:24:02;;;;;;;7.68;5.10;;;12.50;99.90;;;;;;5076541;28;20200;-82
2022/05/07 03:26:27;;;;;;;8.00;4.78;;;10.20;99.90;;;;;;5073426;28;20120;-81
2022/05/07 03:28:53;;;;;;;6.35;4.72;;;10.20;99.90;;;;;;5072619;28;20044;-83
2022/05/07 03:31:19;;;;;;;7.53;4.88;;;;;;;;;;5070941;28;20027;-81
2022/05/07 03:33:46;;;;;;;9.73;5.03;;;10.10;99.90;;;;;;5070488;28;20044;-84
2022/05/07 03:36:13;;;;;;;6.55;4.60;;;10.40;99.90;;;;;;5055362;28;20017;-83
2022/05/07 03:38:39;;;;;;;7.72;5.05;;;13.00;99.90;;;;;;5053805;28;20614;-82
2022/05/07 03:41:05;;;;;;;7.80;4.60;;;;;;;;;;5054205;28;20455;-79
2022/05/07 03:43:33;;;;;;;7.25;4.90;;;10.10;99.90;;;;;;5056052;28;20032;-85
2022/05/07 03:45:58;;;;;;;8.13;4.95;;;11.80;99.90;;;;;;5054946;28;20031;-84
2022/05/07 03:48:26;;;;;;;8.60;5.22;;;10.10;99.90;;;;;;5053577;28;20088;-82
2022/05/07 03:50:52;;;;;;;8.48;5.22;;;10.00;99.90;;;;;;5074443;28;20103;-83
2022/05/07 03:53:30;;;;;;;8.25;4.95;;;10.00;99.90;;;;;;5057156;28;20060;-82
2022/05/07 03:56:00;;;;;;;7.72;5.07;;;11.20;99.90;;;;;;5057321;28;20025;-84
2022/05/07 03:58:26;;;;;;;7.25;4.72;;;10.00;99.90;;;;;;5058310;28;20074;-79
2022/05/07 04:00:53;;;;;;;8.90;5.00;;;9.90;99.90;;;;;;5055822;28;20445;-81
2022/05/07 04:03:20;;;;;;;8.07;5.00;;;10.00;99.90;;;;;;5076422;28;20021;-81
2022/05/07 04:05:46;;;;;;;7.03;5.03;;;10.00;99.90;;;;;;5064926;28;20055;-83
2022/05/07 04:08:12;;;;;;;6.78;4.95;;;9.90;99.90;;;;;;5055624;28;20036;-82
2022/05/07 04:10:37;;;;;;;7.53;4.85;;;9.90;99.90;;;;;;5060499;28;20067;-80
2022/05/07 04:13:03;;;;;;;7.30;4.90;;;;;;;;;;5077833;28;20505;-83
2022/05/07 04:15:29;;;;;;;9.40;5.30;;;9.80;99.90;;;;;;5072120;28;20025;-83
2022/05/07 04:17:55;;;;;;;10.35;5.55;;;;;;;;;;5058470;28;20484;-83
2022/05/07 04:20:21;;;;;;;5.97;4.40;;;;;;;;;;5060760;28;20047;-79
2022/05/07 04:22:47;;;;;;;9.43;5.20;;;;;;;;;;5062747;28;21005;-85
2022/05/07 04:25:13;;;;;;;8.30;5.18;;;;;;;;;;5058805;28;20529;-84
2022/05/07 04:27:39;;;;;;;8.10;5.43;;;9.90;99.90;;;;;;5074581;28;20016;-84
2022/05/07 04:30:05;;;;;;;8.20;5.20;;;9.90;99.90;;;;;;5075282;28;20020;-84
2022/05/07 04:32:31;;;;;;;6.88;5.13;;;9.80;99.90;;;;;;5073969;28;20027;-81
2022/05/07 04:34:57;;;;;;;9.15;5.63;;;;;;;;;;5076379;28;20029;-83
2022/05/07 04:37:24;;;;;;;7.32;5.18;;;9.80;99.90;;;;;;5071565;28;20024;-84
2022/05/07 04:39:50;;;;;;;7.50;5.63;;;;;;;;;;5078011;28;20008;-84
2022/05/07 04:42:16;;;;;;;7.32;5.22;;;9.80;99.90;;;;;;5056574;28;20111;-85
2022/05/07 04:44:42;;;;;;;8.90;6.18;;;12.20;99.90;;;;;;5073626;28;20056;-84
2022/05/07 04:47:08;;;;;;;7.88;5.47;;;9.80;99.90;;;;;;5058399;28;20075;-84
2022/05/07 04:49:35;;;;;;;8.38;6.05;;;;;;;;;;5075528;28;20028;-83
2022/05/07 04:52:01;;;;;;;14.13;6.20;;;9.90;99.90;;;;;;5074584;28;20068;-84
2022/05/07 04:54:27;;;;;;;11.38;6.15;;;;;;;;;;5077553;28;20084;-87
2022/05/07 04:56:53;;;;;;;9.45;6.13;;;10.00;99.90;;;;;;5077134;28;20433;-86
2022/05/07 04:59:20;;;;;;;10.05;6.55;;;10.00;99.90;;;;;;5046532;28;20060;-84
2022/05/07 05:01:46;;;;;;;9.57;6.15;;;10.10;99.90;;;;;;5060213;28;20025;-83
2022/05/07 05:04:12;;;;;;;8.35;5.80;;;10.10;99.90;;;;;;5057295;28;20016;-83
2022/05/07 05:06:39;;;;;;;10.40;6.18;;;10.10;99.90;;;;;;5063077;28;20029;-84
2022/05/07 05:09:06;;;;;;;12.38;6.72;;;12.80;99.90;;;;;;5060166;28;20122;-83
2022/05/07 05:11:34;;;;;;;9.07;6.22;;;10.30;99.90;;;;;;5056891;28;20025;-81
2022/05/07 05:13:59;;;;;;;9.80;6.32;;;10.30;99.90;;;;;;5074125;28;20029;-82
2022/05/07 05:16:25;;;;;;;8.73;5.60;;;10.30;99.90;;;;;;5074013;28;20028;-83
2022/05/07 05:18:52;;;;;;;6.68;5.53;;;11.70;99.90;;;;;;5076292;28;20025;-83
2022/05/07 05:21:18;;;;;;;7.78;5.45;;;12.60;99.90;;;;;;5074280;28;20066;-81
2022/05/07 05:23:46;;;;;;;9.73;5.60;;;10.40;99.90;;;;;;5058166;28;20025;-87
2022/05/07 05:26:13;;;;;;;8.23;5.85;;;10.40;99.90;;;;;;5075949;28;20021;-84
2022/05/07 05:28:39;;;;;;;7.95;5.78;;;10.50;99.90;;;;;;5074501;28;20036;-85
2022/05/07 05:31:09;;;;;;;8.20;5.43;;;11.20;99.90;;;;;;5058141;28;20090;-83
2022/05/07 05:33:35;;;;;;;7.95;4.90;;;11.40;99.90;;;;;;5060782;28;20310;-79
2022/05/07 05:38:34;;;;;;;7.28;4.93;;;13.20;99.90;;;;;;5057985;28;20041;-84
2022/05/07 05:41:00;;;;;;;9.70;4.80;;;;;;;;;;5060809;28;20087;-80
2022/05/07 05:43:26;;;;;;;8.32;5.13;;;14.10;99.90;;;;;;5041378;28;20050;-79
2022/05/07 05:45:51;;;;;;;7.00;5.22;;;14.40;99.90;;;;;;5041461;28;20024;-83
2022/05/07 05:48:17;;;;;;;7.20;5.05;;;14.30;99.90;;;;;;5059103;28;20025;-83
2022/05/07 05:50:42;;;;;;;9.05;4.85;;;14.70;99.90;;;;;;5058108;28;20192;-82
2022/05/07 05:53:08;;;;;;;8.77;5.75;;;15.10;99.90;;;;;;5058420;28;20025;-83
2022/05/07 05:55:33;;;;;;;10.05;5.43;;;14.40;99.90;;;;;;5020837;28;20033;-81
2022/05/07 05:57:59;;;;;;;8.13;5.03;;;14.70;99.90;;;;;;5033932;28;20018;-85
2022/05/07 06:00:25;;;;;;;8.60;4.82;;;14.50;99.90;;;;;;5041266;28;20107;-83
2022/05/07 06:02:50;;;;;;;9.07;5.32;;;14.60;99.90;;;;;;5040593;28;20017;-85
2022/05/07 06:05:17;;;;;;;9.30;6.28;;;14.80;99.90;;;;;;5039165;28;20453;-83
2022/05/07 06:07:43;;;;;;;7.32;5.47;;;16.30;99.90;;;;;;5059977;28;20047;-82
2022/05/07 06:10:09;;;;;;;8.68;5.72;;;13.90;99.90;;;;;;5042331;28;20041;-81
2022/05/07 06:12:35;;;;;;;8.52;6.20;;;13.50;99.90;;;;;;5043329;28;20075;-85
2022/05/07 06:15:01;;;;;;;10.57;6.68;;;;;;;;;;5056479;28;20013;-84
2022/05/07 06:17:27;;;;;;;9.88;6.85;;;;;;;;;;5040846;28;20068;-83
2022/05/07 06:19:53;;;;;;;10.00;6.55;;;;;;;;;;5056205;28;20013;-81
2022/05/07 06:22:19;;;;;;;8.65;6.72;;;;;;;;;;5043067;28;20044;-82
2022/05/07 06:27:32;;;;;;;12.63;7.15;;;13.40;99.90;;;;;;5056681;28;20035;-84
2022/05/07 06:30:03;;;;;;;11.18;7.03;;;13.50;99.90;;;;;;5040980;28;20035;-82
2022/05/07 06:32:37;;;;;;;10.05;6.63;;;13.50;99.90;;;;;;5058219;28;20021;-85
2022/05/07 06:35:07;;;;;;;10.45;7.78;;;13.50;99.90;;;;;;5033577;28;20025;-85
2022/05/07 06:37:33;;;;;;;11.95;7.90;;;13.50;99.90;;;;;;5056721;28;20088;-81
2022/05/07 06:40:00;;;;;;;11.85;7.93;;;13.60;99.90;;;;;;5042306;28;20050;-81
2022/05/07 06:42:26;;;;;;;14.50;9.27;;;13.90;99.90;;;;;;5039616;28;20029;-83
2022/05/07 06:44:52;;;;;;;10.63;8.32;;;;;;;;;;5041846;28;20017;-83
2022/05/07 06:47:20;;;;;;;10.63;8.23;;;;;;;;;;5057922;28;20029;-83
2022/05/07 06:49:46;;;;;;;12.95;8.48;;;;;;;;;;5057929;28;20025;-83
2022/05/07 06:52:12;;;;;;;13.88;8.57;;;;;;;;;;5041218;28;20450;-81
2022/05/07 06:54:38;;;;;;;11.05;7.90;;;14.50;99.90;;;;;;5041735;28;20060;-82
2022/05/07 06:57:05;;;;;;;11.05;8.00;;;;;;;;;;5039426;28;20021;-81
2022/05/07 06:59:31;;;;;;;9.57;8.45;;;;;;;;;;5056976;28;20123;-82
2022/05/07 07:01:57;;;;;;;14.00;8.45;;;;;;;;;;5056925;28;20266;-81
2022/05/07 07:04:23;;;;;;;14.23;8.43;;;;;;;;;;5041369;28;20028;-82
2022/05/07 07:06:50;;;;;;;15.50;9.60;;;;;;;;;;5041182;28;20120;-82
2022/05/07 07:09:16;;;;;;;13.35;8.77;;;;;;;;;;5039996;28;20078;-82
2022/05/07 07:11:42;;;;;;;11.93;8.45;;;;;;;;;;5040447;28;20017;-81
2022/05/07 07:14:08;;;;;;;14.00;9.52;;;;;;;;;;5056397;28;20016;-83
2022/05/07 07:16:34;;;;;;;15.70;9.23;;;;;;;;;;5040797;28;20036;-82
2022/05/07 07:19:00;;;;;;;13.85;9.98;;;;;;;;;;5056645;28;20337;-86
2022/05/07 07:21:26;;;;;;;16.30;10.30;;;;;;;;;;5038223;28;20105;-82
2022/05/07 07:23:52;;;;;;;12.80;9.68;;;;;;;;;;5037467;28;20024;-82
2022/05/07 07:26:18;;;;;;;15.90;11.15;;;15.80;99.90;;;;;;5055198;28;20025;-82
2022/05/07 07:28:44;;;;;;;17.30;10.50;;;15.80;99.90;;;;;;5055562;28;20048;-82
2022/05/07 07:31:10;;;;;;;12.55;9.45;;;16.00;99.90;;;;;;5039511;28;21064;-84
2022/05/07 07:33:38;;;;;;;12.00;9.55;;;16.00;99.90;;;;;;5039040;28;20045;-81
2022/05/07 07:36:05;;;;;;;12.73;10.05;;;16.30;99.90;;;;;;5042017;28;20021;-82
2022/05/07 07:38:31;;;;;;;14.05;9.10;;;16.30;99.90;;;;;;5041690;28;20037;-80
2022/05/07 07:40:57;;;;;;;15.95;8.88;;;;;;;;;;5045232;28;20020;-80
2022/05/07 07:43:23;;;;;;;10.95;8.80;;;16.50;99.90;;;;;;5046127;28;20020;-81
2022/05/07 07:48:33;;;;;;;14.43;9.93;;;17.40;99.90;;;;;;5063104;28;20043;-81
2022/05/07 07:50:59;;;;;;;13.35;9.32;;;17.90;99.90;;;;;;5044279;28;20031;-81
2022/05/07 07:53:25;;;;;;;15.32;9.85;;;;;;;;;;5038538;28;20104;-84
2022/05/07 07:55:52;;;;;;;11.65;9.38;;;17.40;99.90;;;;;;5062185;28;20029;-80
2022/05/07 07:58:18;;;;;;;15.15;10.07;;;17.40;99.90;;;;;;5056669;28;20074;-85
2022/05/07 08:00:44;;;;;;;13.55;9.95;;;;;;;;;;5062641;28;20174;-81
2022/05/07 08:03:15;;;;;;;12.43;9.73;;;17.60;99.90;;;;;;5043736;28;20054;-86
2022/05/07 08:05:43;;;;;;;12.80;9.98;;;17.70;99.90;;;;;;5060750;28;20024;-81
2022/05/07 08:13:42;;;;;;;12.52;9.27;;;18.10;99.90;;;;;;5060711;28;20079;-82
2022/05/07 08:16:08;;;;;;;11.75;9.15;;;18.20;99.90;;;;;;5043513;28;20098;-82
2022/05/07 08:18:35;;;;;;;12.85;8.82;;;19.30;99.90;;;;;;5043047;28;20133;-81
2022/05/07 08:21:01;;;;;;;11.57;8.52;;;18.50;99.90;;;;;;5061576;28;20100;-83
2022/05/07 08:23:27;;;;;;;10.60;8.13;;;18.50;99.40;;;;;;5041669;28;20017;-82
2022/05/07 08:25:54;;;;;;;11.25;8.43;;;18.40;99.50;;;;;;5047209;28;20029;-83
2022/05/07 08:28:21;;;;;;;13.15;8.43;;;;;;;;;;5047309;28;20025;-82
2022/05/07 08:30:49;;;;;;;11.50;8.05;;;;;;;;;;5064748;28;20029;-84
2022/05/07 08:33:17;;;;;;;11.65;7.57;;;;;;;;;;5064687;28;20025;-83
2022/05/07 08:35:43;;;;;;;8.98;6.93;;;;;;;;;;5069079;28;20021;-83
2022/05/07 08:38:09;;;;;;;11.30;7.95;;;;;;;;;;5048489;28;20040;-82
2022/05/07 08:40:35;;;;;;;8.57;7.05;;;;;;;;;;5030523;28;20081;-83
2022/05/07 08:43:03;;;;;;;10.70;7.38;;;19.20;97.50;;;;;;5089036;22;20097;-82
2022/05/07 08:45:29;;;;;;;10.88;6.22;;;;;;;;;;5103781;28;20474;-85
2022/05/07 08:47:54;;;;;;;6.95;5.78;;;19.30;95.50;;;;;;5084443;28;20050;-82
2022/05/07 08:50:21;;;;;;;8.68;6.35;;;19.70;95.30;;;;;;5100866;28;20020;-83
2022/05/07 08:52:47;;;;;;;10.15;7.07;;;19.60;95.60;;;;;;5075673;28;20023;-81
2022/05/07 08:55:22;;;;;;;7.35;5.30;;;19.90;95.30;;;;;;5061216;28;20028;-84
2022/05/07 08:57:50;;;;;;;7.03;3.80;;;21.00;93.80;;;;;;5060507;28;20082;-82
2022/05/07 09:00:18;;;;;;;8.55;4.93;;;20.20;92.60;;;;;;5080810;28;20012;-83
2022/05/07 09:02:48;;;;;;;7.45;4.53;;;;;;;;;;5057680;28;20636;-85
2022/05/07 09:05:16;;;;;;;6.68;4.03;;;20.00;90.20;;;;;;5065421;28;20056;-82
2022/05/07 09:07:58;;;;;;;4.60;2.95;;;20.00;90.40;;;;;;5062318;28;20139;-82
2022/05/07 09:10:35;;;;;;;7.20;2.90;;;20.40;88.80;;;;;;5065019;28;20024;-83
2022/05/07 09:13:09;;;;;;;3.72;2.47;;;20.40;88.20;;;;;;5069733;28;20033;-82
2022/05/07 09:15:36;;;;;;;4.90;2.10;;;20.90;82.00;;;;;;5061972;28;20020;-82
2022/05/07 09:18:12;;;;;;;4.15;2.00;;;20.90;82.40;;;;;;5075547;28;20031;-82
2022/05/07 09:20:38;;;;;;;5.22;1.80;;;21.10;79.10;;;;;;5065763;28;20020;-84
2022/05/07 09:23:03;;;;;;;3.75;2.05;;;21.30;78.50;;;;;;5065705;28;20088;-84
2022/05/07 09:25:30;;;;;;;4.82;2.20;;;;;;;;;;5067092;28;20036;-84
2022/05/07 09:27:57;;;;;;;4.68;1.98;;;;;;;;;;5079515;28;20467;-85
2022/05/07 09:30:26;;;;;;;4.85;2.13;;;;;;;;;;5085646;28;20000;-84
2022/05/07 09:32:54;;;;;;;4.27;2.30;;;21.60;74.60;;;;;;5074934;28;20055;-83
2022/05/07 09:38:09;;;;;;;3.28;1.80;;;21.60;71.20;;;;;;5072121;28;20031;-82
2022/05/07 09:40:39;;;;;;;3.13;1.70;;;21.80;69.00;;;;;;5058778;28;20092;-83
2022/05/07 09:43:05;;;;;;;3.75;1.85;;;22.00;68.50;;;;;;5072461;28;20029;-82
2022/05/07 09:45:32;;;;;;;9.80;1.83;;;22.10;69.10;;;;;;5080113;28;20031;-83
2022/05/07 09:47:58;;;;;;;3.33;1.50;;;;;;;;;;5045059;28;20096;-84
2022/05/07 09:58:38;;;;;;;3.80;1.80;;;22.50;63.60;;;;;;5083345;28;20062;-82
2022/05/07 10:01:24;;;;;;;2.55;1.58;;;22.50;62.00;;;;;;5065627;28;20700;-84
2022/05/07 10:04:34;;;;;;;4.22;1.92;;;22.70;62.70;;;;;;5065211;28;20052;-82
2022/05/07 10:07:24;;;;;;;2.28;1.50;;;22.70;63.50;;;;;;5065043;28;20107;-83
2022/05/07 10:09:56;;;;;;;;;;;22.80;62.20;;;;;;5061497;28;20068;-82
2022/05/07 10:12:23;;;;;;;3.38;2.00;;;23.00;61.90;;;;;;5077959;28;20282;-81
2022/05/07 10:14:49;;;;;;;3.60;1.75;;;23.20;61.80;;;;;;5064289;28;20499;-82
2022/05/07 10:17:19;;;;;;;3.60;1.70;;;23.10;59.90;;;;;;5064760;28;20118;-81
2022/05/07 10:19:46;;;;;;;4.20;1.65;;;23.30;61.30;;;;;;5079722;28;20035;-82
2022/05/07 10:22:23;;;;;;;2.67;1.55;;;23.00;59.20;;;;;;5066398;28;20033;-82
2022/05/07 10:25:08;;;;;;;5.78;2.00;;;22.90;59.50;;;;;;5080375;28;20100;-80
2022/05/07 10:27:42;;;;;;;2.25;1.50;;;23.10;59.70;;;;;;5062219;28;20029;-80
2022/05/07 10:30:09;;;;;;;3.40;1.58;;;23.40;58.60;;;;;;5079905;28;20036;-80
2022/05/07 10:32:56;;;;;;;2.80;1.70;;;23.40;59.00;;;;;;5081663;28;20021;-84
2022/05/07 10:35:53;;;;;;;2.55;1.40;;;23.50;58.00;;;;;;5082475;28;20040;-81
2022/05/07 10:38:26;;;;;;;7.20;1.88;;;23.90;57.70;;;;;;5080924;28;20021;-83
2022/05/07 10:40:57;;;;;;;2.53;1.45;;;24.10;56.30;;;;;;5065986;28;20024;-82
2022/05/07 10:43:28;;;;;;;4.00;1.67;;;24.30;56.50;;;;;;5061520;28;20028;-85
2022/05/07 10:46:04;;;;;;;6.10;1.90;;;24.30;55.60;;;;;;5065348;28;20531;-82
2022/05/07 10:48:56;;;;;;;3.22;1.58;;;24.30;56.00;;;;;;5066497;28;20390;-83
2022/05/07 10:51:51;;;;;;;4.18;1.70;;;24.00;56.00;;;;;;5062786;28;20032;-81
2022/05/07 10:54:21;;;;;;;4.10;1.95;;;23.50;57.20;;;;;;5063720;28;20025;-80
2022/05/07 10:56:55;;;;;;;4.50;1.80;;;23.20;57.90;;;;;;5062791;28;20108;-81
2022/05/07 10:59:23;;;;;;;4.78;1.75;;;23.00;57.90;;;;;;5080198;28;20028;-82
2022/05/07 11:01:50;;;;;;;3.58;1.70;;;23.00;58.00;;;;;;5073414;28;20021;-83
2022/05/07 11:04:18;;;;;;;4.25;1.70;;;22.90;57.60;;;;;;5083147;28;20108;-82
2022/05/07 11:06:52;;;;;;;2.83;1.60;;;22.70;57.20;;;;;;5063567;28;20123;-82
2022/05/07 11:09:25;;;;;;;2.72;1.80;;;22.80;57.00;;;;;;5083867;28;20027;-84
2022/05/07 11:11:57;;;;;;;3.80;1.90;;;22.60;57.60;;;;;;5079166;28;20451;-83
2022/05/07 11:14:24;;;;;;;3.15;1.70;;;22.60;58.10;;;;;;5064843;28;20028;-82
2022/05/07 11:16:55;;;;;;;3.10;1.88;;;22.70;58.00;;;;;;5075364;28;20028;-84
2022/05/07 11:19:32;;;;;;;6.40;2.00;;;22.70;58.40;;;;;;5073971;28;20020;-83
2022/05/07 11:21:59;;;;;;;2.20;1.38;;;22.80;58.50;;;;;;5056302;28;20021;-82
2022/05/07 11:24:27;;;;;;;3.20;1.52;;;22.50;56.50;;;;;;5076694;28;20040;-82
2022/05/07 11:27:05;;;;;;;4.65;1.60;;;22.30;57.30;;;;;;5079508;28;20040;-80
2022/05/07 11:29:31;;;;;;;3.45;1.55;;;;;;;;;;5060333;28;20100;-84
2022/05/07 11:32:00;;;;;;;3.08;1.67;;;22.70;57.90;;;;;;5078580;28;20053;-82
2022/05/07 11:34:35;;;;;;;3.67;1.60;;;22.60;58.20;;;;;;5078707;28;20032;-82
2022/05/07 11:37:20;;;;;;;4.30;1.70;;;22.50;57.30;;;;;;5080394;28;20089;-79
2022/05/07 11:39:59;;;;;;;2.92;1.58;;;22.70;57.50;;;;;;5076967;28;20017;-82
2022/05/07 11:42:29;;;;;;;4.97;2.60;;;22.80;56.30;;;;;;5078544;28;20107;-84
2022/05/07 11:48:09;;;;;;;6.05;1.83;;;22.80;56.80;;;;;;5082126;28;20040;-84
2022/05/07 11:50:41;;;;;;;5.57;1.70;;;22.80;56.10;;;;;;5075072;28;20778;-83
2022/05/07 11:53:14;;;;;;;12.60;6.35;;;22.80;56.50;;;;;;5079736;28;20028;-80
2022/05/07 11:55:41;;;;;;;5.07;2.20;;;23.00;57.50;;;;;;5082374;28;20020;-81
2022/05/07 11:58:22;;;;;;;4.95;2.25;;;23.40;57.40;;;;;;5082397;28;20024;-82
2022/05/07 12:00:50;;;;;;;3.83;2.00;;;23.90;56.50;;;;;;5074855;28;20020;-81
2022/05/07 12:03:24;;;;;;;4.95;2.13;;;24.00;55.70;;;;;;5055063;28;20025;-81
2022/05/07 12:05:53;;;;;;;5.80;1.90;;;23.90;55.30;;;;;;5064390;28;20478;-81
2022/05/07 12:08:19;;;;;;;4.60;2.08;;;23.70;56.10;;;;;;5062890;28;20033;-82
2022/05/07 12:10:46;;;;;;;4.75;2.28;;;23.60;56.70;;;;;;5063169;28;20535;-84
2022/05/07 12:13:16;;;;;;;3.47;1.67;;;23.60;55.30;;;;;;5062005;28;20023;-84
2022/05/07 12:18:27;;;;;;;4.22;2.03;;;23.50;55.20;;;;;;5070456;28;20055;-83
2022/05/07 12:20:54;;;;;;;2.88;1.58;;;23.30;55.80;;;;;;5061689;28;20029;-82
2022/05/07 12:31:34;;;;;;;7.13;3.38;;;23.10;56.60;;;;;;5082734;28;20040;-82
2022/05/07 12:34:00;;;;;;;4.47;1.70;;;;;;;;;;5067754;28;20028;-85
2022/05/07 12:36:28;;;;;;;5.03;1.80;;;23.10;56.20;;;;;;5067555;28;20023;-84
2022/05/07 12:38:59;;;;;;;4.13;1.70;;;23.10;57.00;;;;;;5063077;28;20033;-84
2022/05/07 12:41:27;;;;;;;3.92;1.90;;;23.00;56.30;;;;;;5079742;28;20024;-84
2022/05/07 12:43:53;;;;;;;3.00;1.70;;;23.00;56.20;;;;;;5069096;28;20035;-82
2022/05/07 12:46:20;;;;;;;2.25;1.70;;;23.60;57.20;;;;;;5068061;28;20042;-81
2022/05/07 12:48:46;;;;;;;4.57;1.80;;;23.10;57.00;;;;;;5064605;28;20157;-80
2022/05/07 12:51:12;;;;;;;6.47;1.90;;;23.10;56.70;;;;;;5063970;28;20546;-82
2022/05/07 12:53:39;;;;;;;7.50;3.75;;;23.10;57.30;;;;;;5064655;28;20027;-82
2022/05/07 12:56:05;;;;;;;3.63;1.80;;;;;;;;;;5084650;28;20048;-84
2022/05/07 12:58:31;;;;;;;2.95;1.90;;;;;;;;;;5059970;28;20092;-84
2022/05/07 13:00:57;;;;;;;4.35;1.70;;;;;;;;;;5062587;28;20021;-83
2022/05/07 13:03:24;;;;;;;5.28;1.83;;;;;;;;;;5073252;28;20028;-80
2022/05/07 13:05:50;;;;;;;6.65;1.58;;;;;;;;;;5074435;28;20040;-84
2022/05/07 13:08:16;;;;;;;7.82;3.47;;;;;;;;;;5062227;28;20040;-83
2022/05/07 13:10:42;;;;;;;6.80;3.10;;;23.70;54.90;;;;;;5081047;28;20039;-82
2022/05/07 13:13:09;;;;;;;4.38;1.98;;;;;;;;;;5083991;28;20502;-83
2022/05/07 13:15:35;;;;;;;5.65;2.50;;;;;;;;;;5083948;28;20490;-82
2022/05/07 13:18:00;;;;;;;3.28;1.70;;;23.90;56.00;;;;;;5078920;28;20029;-82
2022/05/07 13:20:27;;;;;;;4.57;1.52;;;21.60;53.50;;;;;;5086292;28;20016;-81
2022/05/07 13:22:54;;;;;;;4.07;2.10;;;24.00;55.00;;;;;;5071165;28;20029;-82
2022/05/07 13:25:22;;;;;;;4.10;1.73;;;24.00;54.50;;;;;;5064425;28;20478;-82
2022/05/07 13:27:48;;;;;;;5.28;1.50;;;23.80;55.10;;;;;;5063562;28;20112;-81
2022/05/07 13:30:15;;;;;;;4.35;1.40;;;24.00;55.40;;;;;;5079442;28;20024;-81
2022/05/07 13:32:41;;;;;;;3.55;1.55;;;23.70;54.80;;;;;;5061856;28;20016;-82
2022/05/07 13:35:09;;;;;;;2.88;1.67;;;23.60;55.90;;;;;;5058784;28;20035;-83
2022/05/07 13:37:35;;;;;;;9.23;4.07;;;23.90;54.80;;;;;;5053108;28;20074;-83
2022/05/07 13:40:02;;;;;;;3.63;1.60;;;23.80;55.20;;;;;;5075495;28;20041;-83
2022/05/07 13:42:28;;;;;;;2.72;1.40;;;;;;;;;;5080401;28;20029;-82
2022/05/07 13:44:54;;;;;;;4.50;1.42;;;23.50;55.50;;;;;;5080748;28;20029;-85
2022/05/07 13:47:20;;;;;;;2.53;1.50;;;23.30;56.30;;;;;;5074450;28;20035;-83
2022/05/07 13:49:46;;;;;;;8.07;2.58;;;23.00;57.30;;;;;;5059771;28;20124;-83
2022/05/07 13:52:12;;;;;;;3.58;1.50;;;23.20;56.90;;;;;;5059536;28;20017;-80
2022/05/07 13:54:38;;;;;;;2.50;1.50;;;;;;;;;;5061969;28;20628;-83
2022/05/07 13:57:07;;;;;;;5.22;1.77;;;23.80;55.80;;;;;;5053464;28;20029;-83
2022/05/07 13:59:33;;;;;;;3.58;1.48;;;;;;;;;;5081345;28;20078;-81
2022/05/07 14:01:59;;;;;;;4.07;1.60;;;24.10;55.00;;;;;;5080733;28;20122;-82